<?xml version="1.0" encoding="UTF-8" standalone="no" ?>
<gpx xmlns="http://www.topografix.com/GPX/1/1" xmlns:xsi="http://www.w3.org/2001/XMLSchema-instance" xsi:schemaLocation="http://www.topografix.com/GPX/1/1 http://www.topografix.com/GPX/1/1/gpx.xsd" version="1.1" creator="VisuGPX - https://www.visugpx.com">
  <metadata>
    <name>GR441 Kevin</name>
  </metadata>
  <wpt lat="45.86793" lon="2.95388">
    <ele>900.5</ele>
    <name><![CDATA[Bivy 1]]></name>
    <type><![CDATA[camping]]></type>
  </wpt>
  <wpt lat="45.77933" lon="2.86085">
    <ele>758</ele>
    <name><![CDATA[Bivy 2]]></name>
    <desc><![CDATA[Bivouac 2]]></desc>
    <type><![CDATA[camping]]></type>
  </wpt>
  <wpt lat="45.64793" lon="2.85852">
    <ele>1207.1</ele>
    <name><![CDATA[Bivy 3]]></name>
    <type><![CDATA[camping]]></type>
  </wpt>
  <wpt lat="45.71022" lon="2.94378">
    <ele>1043.6</ele>
    <name><![CDATA[Bivy 4]]></name>
    <type><![CDATA[camping]]></type>
  </wpt>
  <wpt lat="45.7932" lon="2.9464">
    <ele>1028.1</ele>
    <name><![CDATA[Bivy 5]]></name>
    <type><![CDATA[camping]]></type>
  </wpt>
  <wpt lat="45.86932" lon="2.98248">
    <ele>807</ele>
    <name><![CDATA[Bivy 6a]]></name>
    <type><![CDATA[camping]]></type>
  </wpt>
  <wpt lat="45.88162" lon="3.03012">
    <ele>659.4</ele>
    <name><![CDATA[Bivy 6b]]></name>
    <type><![CDATA[camping]]></type>
  </wpt>
  <wpt lat="45.90557" lon="2.99635">
    <ele>720.2</ele>
    <name><![CDATA[Départ / Arrivée1]]></name>
    <type><![CDATA[user]]></type>
  </wpt>
  <trk>
    <name><![CDATA[J3]]></name>
    <extensions>
      <line xmlns="http://www.topografix.com/GPX/gpx_style/0/2">
        <color>932092</color>
        <width>4</width>
      </line>
    </extensions>
    <trkseg>
      <trkpt lat="45.77949" lon="2.86039">
        <ele>761.41189</ele>
        <time>2022-03-06T01:44:52Z</time>
      </trkpt>
      <trkpt lat="45.77858" lon="2.86057">
        <ele>763.663754</ele>
        <time>2022-03-06T01:46:35Z</time>
      </trkpt>
      <trkpt lat="45.7783" lon="2.86067">
        <ele>764.345537</ele>
        <time>2022-03-06T01:47:06Z</time>
      </trkpt>
      <trkpt lat="45.77752" lon="2.86152">
        <ele>765.688106</ele>
        <time>2022-03-06T01:48:48Z</time>
      </trkpt>
      <trkpt lat="45.77729" lon="2.86165">
        <ele>765.508363</ele>
        <time>2022-03-06T01:49:13Z</time>
      </trkpt>
      <trkpt lat="45.7769" lon="2.86173">
        <ele>765.221492</ele>
        <time>2022-03-06T01:49:53Z</time>
      </trkpt>
      <trkpt lat="45.77619" lon="2.86249">
        <ele>764.448898</ele>
        <time>2022-03-06T01:51:24Z</time>
      </trkpt>
      <trkpt lat="45.77577" lon="2.86293">
        <ele>762.552945</ele>
        <time>2022-03-06T01:52:20Z</time>
      </trkpt>
      <trkpt lat="45.7751" lon="2.86318">
        <ele>760.05928</ele>
        <time>2022-03-06T01:53:35Z</time>
      </trkpt>
      <trkpt lat="45.77449" lon="2.86359">
        <ele>757.563461</ele>
        <time>2022-03-06T01:54:48Z</time>
      </trkpt>
      <trkpt lat="45.77404" lon="2.86372">
        <ele>755.666881</ele>
        <time>2022-03-06T01:55:38Z</time>
      </trkpt>
      <trkpt lat="45.77349" lon="2.86366">
        <ele>753.388026</ele>
        <time>2022-03-06T01:56:38Z</time>
      </trkpt>
      <trkpt lat="45.77331" lon="2.86386">
        <ele>752.430403</ele>
        <time>2022-03-06T01:57:04Z</time>
      </trkpt>
      <trkpt lat="45.77311" lon="2.86441">
        <ele>750.668002</ele>
        <time>2022-03-06T01:57:50Z</time>
      </trkpt>
      <trkpt lat="45.77285" lon="2.86484">
        <ele>750.270263</ele>
        <time>2022-03-06T01:58:32Z</time>
      </trkpt>
      <trkpt lat="45.77271" lon="2.86498">
        <ele>750.092952</ele>
        <time>2022-03-06T01:58:50Z</time>
      </trkpt>
      <trkpt lat="45.77283" lon="2.86616">
        <ele>749.239292</ele>
        <time>2022-03-06T02:00:16Z</time>
      </trkpt>
      <trkpt lat="45.77274" lon="2.86658">
        <ele>748.925685</ele>
        <time>2022-03-06T02:00:46Z</time>
      </trkpt>
      <trkpt lat="45.77272" lon="2.86712">
        <ele>750.24404</ele>
        <time>2022-03-06T02:01:28Z</time>
      </trkpt>
      <trkpt lat="45.77237" lon="2.8684">
        <ele>754.952368</ele>
        <time>2022-03-06T02:03:21Z</time>
      </trkpt>
      <trkpt lat="45.77236" lon="2.86893">
        <ele>756.789887</ele>
        <time>2022-03-06T02:04:06Z</time>
      </trkpt>
      <trkpt lat="45.7723" lon="2.8691">
        <ele>757.410872</ele>
        <time>2022-03-06T02:04:24Z</time>
      </trkpt>
      <trkpt lat="45.77217" lon="2.86924">
        <ele>758.609459</ele>
        <time>2022-03-06T02:04:43Z</time>
      </trkpt>
      <trkpt lat="45.77196" lon="2.8698">
        <ele>762.293404</ele>
        <time>2022-03-06T02:05:39Z</time>
      </trkpt>
      <trkpt lat="45.77169" lon="2.86997">
        <ele>764.725126</ele>
        <time>2022-03-06T02:06:17Z</time>
      </trkpt>
      <trkpt lat="45.7716" lon="2.87011">
        <ele>765.809123</ele>
        <time>2022-03-06T02:06:35Z</time>
      </trkpt>
      <trkpt lat="45.77155" lon="2.87048">
        <ele>767.954703</ele>
        <time>2022-03-06T02:07:09Z</time>
      </trkpt>
      <trkpt lat="45.77123" lon="2.87133">
        <ele>773.411439</ele>
        <time>2022-03-06T02:08:36Z</time>
      </trkpt>
      <trkpt lat="45.77096" lon="2.87163">
        <ele>775.774048</ele>
        <time>2022-03-06T02:09:20Z</time>
      </trkpt>
      <trkpt lat="45.77049" lon="2.87233">
        <ele>780.443664</ele>
        <time>2022-03-06T02:10:46Z</time>
      </trkpt>
      <trkpt lat="45.77001" lon="2.87377">
        <ele>785.662462</ele>
        <time>2022-03-06T02:12:57Z</time>
      </trkpt>
      <trkpt lat="45.76998" lon="2.87371">
        <ele>785.735521</ele>
        <time>2022-03-06T02:13:03Z</time>
      </trkpt>
      <trkpt lat="45.76929" lon="2.87314">
        <ele>786.968207</ele>
        <time>2022-03-06T02:14:26Z</time>
      </trkpt>
      <trkpt lat="45.76885" lon="2.87314">
        <ele>787.63647</ele>
        <time>2022-03-06T02:15:11Z</time>
      </trkpt>
      <trkpt lat="45.76831" lon="2.8729">
        <ele>786.210453</ele>
        <time>2022-03-06T02:16:10Z</time>
      </trkpt>
      <trkpt lat="45.76799" lon="2.8729">
        <ele>785.264762</ele>
        <time>2022-03-06T02:16:45Z</time>
      </trkpt>
      <trkpt lat="45.76784" lon="2.87284">
        <ele>784.810536</ele>
        <time>2022-03-06T02:17:01Z</time>
      </trkpt>
      <trkpt lat="45.7678" lon="2.87265">
        <ele>784.399017</ele>
        <time>2022-03-06T02:17:17Z</time>
      </trkpt>
      <trkpt lat="45.76757" lon="2.87228">
        <ele>783.384056</ele>
        <time>2022-03-06T02:17:54Z</time>
      </trkpt>
      <trkpt lat="45.76734" lon="2.87215">
        <ele>782.661732</ele>
        <time>2022-03-06T02:18:20Z</time>
      </trkpt>
      <trkpt lat="45.76723" lon="2.87195">
        <ele>781.972179</ele>
        <time>2022-03-06T02:18:39Z</time>
      </trkpt>
      <trkpt lat="45.76714" lon="2.87118">
        <ele>779.439085</ele>
        <time>2022-03-06T02:19:38Z</time>
      </trkpt>
      <trkpt lat="45.76712" lon="2.87104">
        <ele>778.966325</ele>
        <time>2022-03-06T02:19:50Z</time>
      </trkpt>
      <trkpt lat="45.76702" lon="2.87092">
        <ele>778.370177</ele>
        <time>2022-03-06T02:20:03Z</time>
      </trkpt>
      <trkpt lat="45.76641" lon="2.87063">
        <ele>775.36876</ele>
        <time>2022-03-06T02:21:14Z</time>
      </trkpt>
      <trkpt lat="45.76607" lon="2.87035">
        <ele>773.531614</ele>
        <time>2022-03-06T02:21:58Z</time>
      </trkpt>
      <trkpt lat="45.76499" lon="2.87026">
        <ele>768.31385</ele>
        <time>2022-03-06T02:23:58Z</time>
      </trkpt>
      <trkpt lat="45.7648" lon="2.87062">
        <ele>766.762061</ele>
        <time>2022-03-06T02:24:34Z</time>
      </trkpt>
      <trkpt lat="45.76389" lon="2.87103">
        <ele>764.819383</ele>
        <time>2022-03-06T02:26:14Z</time>
      </trkpt>
      <trkpt lat="45.76343" lon="2.87098">
        <ele>764.415756</ele>
        <time>2022-03-06T02:27:00Z</time>
      </trkpt>
      <trkpt lat="45.76293" lon="2.87125">
        <ele>763.945592</ele>
        <time>2022-03-06T02:27:57Z</time>
      </trkpt>
      <trkpt lat="45.7626" lon="2.87088">
        <ele>763.647796</ele>
        <time>2022-03-06T02:28:40Z</time>
      </trkpt>
      <trkpt lat="45.76168" lon="2.87037">
        <ele>763.033867</ele>
        <time>2022-03-06T02:30:19Z</time>
      </trkpt>
      <trkpt lat="45.7604" lon="2.86931">
        <ele>760.809363</ele>
        <time>2022-03-06T02:32:54Z</time>
      </trkpt>
      <trkpt lat="45.76022" lon="2.86923">
        <ele>760.418084</ele>
        <time>2022-03-06T02:33:15Z</time>
      </trkpt>
      <trkpt lat="45.76001" lon="2.86923">
        <ele>760.006278</ele>
        <time>2022-03-06T02:33:37Z</time>
      </trkpt>
      <trkpt lat="45.75981" lon="2.86929">
        <ele>759.592781</ele>
        <time>2022-03-06T02:33:58Z</time>
      </trkpt>
      <trkpt lat="45.75941" lon="2.86961">
        <ele>759.082334</ele>
        <time>2022-03-06T02:34:44Z</time>
      </trkpt>
      <trkpt lat="45.75883" lon="2.87039">
        <ele>758.974771</ele>
        <time>2022-03-06T02:36:06Z</time>
      </trkpt>
      <trkpt lat="45.75863" lon="2.87057">
        <ele>758.944412</ele>
        <time>2022-03-06T02:36:30Z</time>
      </trkpt>
      <trkpt lat="45.75811" lon="2.87082">
        <ele>758.870327</ele>
        <time>2022-03-06T02:37:27Z</time>
      </trkpt>
      <trkpt lat="45.75756" lon="2.87091">
        <ele>757.107535</ele>
        <time>2022-03-06T02:38:25Z</time>
      </trkpt>
      <trkpt lat="45.75669" lon="2.87123">
        <ele>754.214433</ele>
        <time>2022-03-06T02:40:02Z</time>
      </trkpt>
      <trkpt lat="45.75639" lon="2.87111">
        <ele>753.221448</ele>
        <time>2022-03-06T02:40:36Z</time>
      </trkpt>
      <trkpt lat="45.75573" lon="2.87112">
        <ele>751.039959</ele>
        <time>2022-03-06T02:41:48Z</time>
      </trkpt>
      <trkpt lat="45.75434" lon="2.87033">
        <ele>746.717869</ele>
        <time>2022-03-06T02:44:26Z</time>
      </trkpt>
      <trkpt lat="45.75396" lon="2.87">
        <ele>746.119505</ele>
        <time>2022-03-06T02:45:13Z</time>
      </trkpt>
      <trkpt lat="45.75265" lon="2.86941">
        <ele>745.021014</ele>
        <time>2022-03-06T02:47:32Z</time>
      </trkpt>
      <trkpt lat="45.75194" lon="2.86927">
        <ele>745.604352</ele>
        <time>2022-03-06T02:48:45Z</time>
      </trkpt>
      <trkpt lat="45.75143" lon="2.86905">
        <ele>746.03655</ele>
        <time>2022-03-06T02:49:40Z</time>
      </trkpt>
      <trkpt lat="45.75006" lon="2.86881">
        <ele>749.329723</ele>
        <time>2022-03-06T02:52:12Z</time>
      </trkpt>
      <trkpt lat="45.74889" lon="2.86834">
        <ele>752.528969</ele>
        <time>2022-03-06T02:54:27Z</time>
      </trkpt>
      <trkpt lat="45.74861" lon="2.86828">
        <ele>753.254554</ele>
        <time>2022-03-06T02:54:57Z</time>
      </trkpt>
      <trkpt lat="45.74859" lon="2.86823">
        <ele>753.361323</ele>
        <time>2022-03-06T02:55:02Z</time>
      </trkpt>
      <trkpt lat="45.74805" lon="2.86734">
        <ele>755.488031</ele>
        <time>2022-03-06T02:56:31Z</time>
      </trkpt>
      <trkpt lat="45.74725" lon="2.86641">
        <ele>757.464524</ele>
        <time>2022-03-06T02:58:21Z</time>
      </trkpt>
      <trkpt lat="45.74724" lon="2.86641">
        <ele>757.499576</ele>
        <time>2022-03-06T02:58:23Z</time>
      </trkpt>
      <trkpt lat="45.7466" lon="2.86628">
        <ele>758.70247</ele>
        <time>2022-03-06T02:59:31Z</time>
      </trkpt>
      <trkpt lat="45.74588" lon="2.86618">
        <ele>759.184995</ele>
        <time>2022-03-06T03:00:46Z</time>
      </trkpt>
      <trkpt lat="45.74572" lon="2.86618">
        <ele>759.225644</ele>
        <time>2022-03-06T03:01:03Z</time>
      </trkpt>
      <trkpt lat="45.74538" lon="2.86633">
        <ele>759.314495</ele>
        <time>2022-03-06T03:01:40Z</time>
      </trkpt>
      <trkpt lat="45.74528" lon="2.86634">
        <ele>759.338092</ele>
        <time>2022-03-06T03:01:50Z</time>
      </trkpt>
      <trkpt lat="45.74519" lon="2.8663">
        <ele>759.361159</ele>
        <time>2022-03-06T03:01:59Z</time>
      </trkpt>
      <trkpt lat="45.74499" lon="2.86619">
        <ele>759.414949</ele>
        <time>2022-03-06T03:02:21Z</time>
      </trkpt>
      <trkpt lat="45.74488" lon="2.86613">
        <ele>759.443754</ele>
        <time>2022-03-06T03:02:33Z</time>
      </trkpt>
      <trkpt lat="45.74464" lon="2.866">
        <ele>759.37562</ele>
        <time>2022-03-06T03:03:00Z</time>
      </trkpt>
      <trkpt lat="45.74453" lon="2.866">
        <ele>759.067274</ele>
        <time>2022-03-06T03:03:11Z</time>
      </trkpt>
      <trkpt lat="45.7443" lon="2.86615">
        <ele>758.32419</ele>
        <time>2022-03-06T03:03:38Z</time>
      </trkpt>
      <trkpt lat="45.74402" lon="2.86642">
        <ele>757.340476</ele>
        <time>2022-03-06T03:04:14Z</time>
      </trkpt>
      <trkpt lat="45.74404" lon="2.86656">
        <ele>757.058427</ele>
        <time>2022-03-06T03:04:24Z</time>
      </trkpt>
      <trkpt lat="45.74402" lon="2.86642">
        <ele>756.776378</ele>
        <time>2022-03-06T03:04:34Z</time>
      </trkpt>
      <trkpt lat="45.74397" lon="2.86632">
        <ele>756.521634</ele>
        <time>2022-03-06T03:04:44Z</time>
      </trkpt>
      <trkpt lat="45.74382" lon="2.86633">
        <ele>756.090718</ele>
        <time>2022-03-06T03:05:00Z</time>
      </trkpt>
      <trkpt lat="45.74346" lon="2.86651">
        <ele>754.985878</ele>
        <time>2022-03-06T03:05:41Z</time>
      </trkpt>
      <trkpt lat="45.74285" lon="2.86627">
        <ele>752.911697</ele>
        <time>2022-03-06T03:06:49Z</time>
      </trkpt>
      <trkpt lat="45.74256" lon="2.86603">
        <ele>751.698573</ele>
        <time>2022-03-06T03:07:26Z</time>
      </trkpt>
      <trkpt lat="45.74229" lon="2.86594">
        <ele>750.724067</ele>
        <time>2022-03-06T03:07:55Z</time>
      </trkpt>
      <trkpt lat="45.74147" lon="2.86546">
        <ele>747.724205</ele>
        <time>2022-03-06T03:09:30Z</time>
      </trkpt>
      <trkpt lat="45.7407" lon="2.86481">
        <ele>745.978426</ele>
        <time>2022-03-06T03:11:04Z</time>
      </trkpt>
      <trkpt lat="45.74007" lon="2.86398">
        <ele>744.439491</ele>
        <time>2022-03-06T03:12:32Z</time>
      </trkpt>
      <trkpt lat="45.73987" lon="2.86378">
        <ele>744.849053</ele>
        <time>2022-03-06T03:12:57Z</time>
      </trkpt>
      <trkpt lat="45.73954" lon="2.86357">
        <ele>745.449822</ele>
        <time>2022-03-06T03:13:34Z</time>
      </trkpt>
      <trkpt lat="45.73946" lon="2.86342">
        <ele>745.669558</ele>
        <time>2022-03-06T03:13:47Z</time>
      </trkpt>
      <trkpt lat="45.73928" lon="2.86269">
        <ele>746.576019</ele>
        <time>2022-03-06T03:14:45Z</time>
      </trkpt>
      <trkpt lat="45.73921" lon="2.86258">
        <ele>746.756668</ele>
        <time>2022-03-06T03:14:56Z</time>
      </trkpt>
      <trkpt lat="45.73907" lon="2.86248">
        <ele>747.014022</ele>
        <time>2022-03-06T03:15:14Z</time>
      </trkpt>
      <trkpt lat="45.73889" lon="2.86248">
        <ele>747.314119</ele>
        <time>2022-03-06T03:15:34Z</time>
      </trkpt>
      <trkpt lat="45.73878" lon="2.8621">
        <ele>748.790204</ele>
        <time>2022-03-06T03:16:08Z</time>
      </trkpt>
      <trkpt lat="45.73878" lon="2.86132">
        <ele>751.983243</ele>
        <time>2022-03-06T03:17:13Z</time>
      </trkpt>
      <trkpt lat="45.73874" lon="2.86097">
        <ele>753.443453</ele>
        <time>2022-03-06T03:17:43Z</time>
      </trkpt>
      <trkpt lat="45.73833" lon="2.86048">
        <ele>756.577277</ele>
        <time>2022-03-06T03:18:49Z</time>
      </trkpt>
      <trkpt lat="45.73809" lon="2.86023">
        <ele>758.342577</ele>
        <time>2022-03-06T03:19:26Z</time>
      </trkpt>
      <trkpt lat="45.73778" lon="2.85997">
        <ele>760.531315</ele>
        <time>2022-03-06T03:20:10Z</time>
      </trkpt>
      <trkpt lat="45.73733" lon="2.85963">
        <ele>763.63456</ele>
        <time>2022-03-06T03:21:13Z</time>
      </trkpt>
      <trkpt lat="45.73678" lon="2.85769">
        <ele>771.618552</ele>
        <time>2022-03-06T03:24:06Z</time>
      </trkpt>
      <trkpt lat="45.73571" lon="2.85735">
        <ele>776.536374</ele>
        <time>2022-03-06T03:26:12Z</time>
      </trkpt>
      <trkpt lat="45.73507" lon="2.85546">
        <ele>781.429457</ele>
        <time>2022-03-06T03:28:55Z</time>
      </trkpt>
      <trkpt lat="45.73407" lon="2.85691">
        <ele>785.793101</ele>
        <time>2022-03-06T03:31:33Z</time>
      </trkpt>
      <trkpt lat="45.73389" lon="2.8571">
        <ele>786.479161</ele>
        <time>2022-03-06T03:31:57Z</time>
      </trkpt>
      <trkpt lat="45.73386" lon="2.85702">
        <ele>786.66159</ele>
        <time>2022-03-06T03:32:05Z</time>
      </trkpt>
      <trkpt lat="45.73321" lon="2.85654">
        <ele>788.818</ele>
        <time>2022-03-06T03:33:25Z</time>
      </trkpt>
      <trkpt lat="45.73298" lon="2.8563">
        <ele>789.636234</ele>
        <time>2022-03-06T03:33:56Z</time>
      </trkpt>
      <trkpt lat="45.73187" lon="2.85556">
        <ele>793.16936</ele>
        <time>2022-03-06T03:36:12Z</time>
      </trkpt>
      <trkpt lat="45.7309" lon="2.85468">
        <ele>795.321251</ele>
        <time>2022-03-06T03:38:17Z</time>
      </trkpt>
      <trkpt lat="45.7298" lon="2.85419">
        <ele>798.273244</ele>
        <time>2022-03-06T03:40:16Z</time>
      </trkpt>
      <trkpt lat="45.72952" lon="2.85399">
        <ele>799.494093</ele>
        <time>2022-03-06T03:40:48Z</time>
      </trkpt>
      <trkpt lat="45.72907" lon="2.85377">
        <ele>801.366399</ele>
        <time>2022-03-06T03:41:41Z</time>
      </trkpt>
      <trkpt lat="45.72877" lon="2.85328">
        <ele>803.167883</ele>
        <time>2022-03-06T03:42:36Z</time>
      </trkpt>
      <trkpt lat="45.7286" lon="2.85284">
        <ele>806.016017</ele>
        <time>2022-03-06T03:43:21Z</time>
      </trkpt>
      <trkpt lat="45.72741" lon="2.85235">
        <ele>819.369885</ele>
        <time>2022-03-06T03:46:18Z</time>
      </trkpt>
      <trkpt lat="45.72674" lon="2.85236">
        <ele>824.068559</ele>
        <time>2022-03-06T03:47:54Z</time>
      </trkpt>
      <trkpt lat="45.72636" lon="2.85224">
        <ele>825.245172</ele>
        <time>2022-03-06T03:48:44Z</time>
      </trkpt>
      <trkpt lat="45.72581" lon="2.85175">
        <ele>827.208121</ele>
        <time>2022-03-06T03:49:56Z</time>
      </trkpt>
      <trkpt lat="45.72533" lon="2.85117">
        <ele>826.011378</ele>
        <time>2022-03-06T03:51:06Z</time>
      </trkpt>
      <trkpt lat="45.72481" lon="2.85093">
        <ele>818.74163</ele>
        <time>2022-03-06T03:52:15Z</time>
      </trkpt>
      <trkpt lat="45.72487" lon="2.84934">
        <ele>804.041613</ele>
        <time>2022-03-06T03:54:41Z</time>
      </trkpt>
      <trkpt lat="45.72385" lon="2.849">
        <ele>791.059592</ele>
        <time>2022-03-06T03:56:56Z</time>
      </trkpt>
      <trkpt lat="45.72224" lon="2.84832">
        <ele>775.889044</ele>
        <time>2022-03-06T04:00:11Z</time>
      </trkpt>
      <trkpt lat="45.72153" lon="2.84839">
        <ele>771.199882</ele>
        <time>2022-03-06T04:01:29Z</time>
      </trkpt>
      <trkpt lat="45.72089" lon="2.84818">
        <ele>768.234338</ele>
        <time>2022-03-06T04:02:40Z</time>
      </trkpt>
      <trkpt lat="45.72031" lon="2.84823">
        <ele>765.790335</ele>
        <time>2022-03-06T04:03:44Z</time>
      </trkpt>
      <trkpt lat="45.72015" lon="2.8483">
        <ele>765.102821</ele>
        <time>2022-03-06T04:04:02Z</time>
      </trkpt>
      <trkpt lat="45.72002" lon="2.84845">
        <ele>764.431159</ele>
        <time>2022-03-06T04:04:19Z</time>
      </trkpt>
      <trkpt lat="45.71982" lon="2.84733">
        <ele>761.719237</ele>
        <time>2022-03-06T04:05:46Z</time>
      </trkpt>
      <trkpt lat="45.71935" lon="2.84645">
        <ele>759.575489</ele>
        <time>2022-03-06T04:07:09Z</time>
      </trkpt>
      <trkpt lat="45.71915" lon="2.84582">
        <ele>758.236143</ele>
        <time>2022-03-06T04:08:00Z</time>
      </trkpt>
      <trkpt lat="45.71814" lon="2.84549">
        <ele>759.983061</ele>
        <time>2022-03-06T04:09:44Z</time>
      </trkpt>
      <trkpt lat="45.71812" lon="2.84546">
        <ele>760.051583</ele>
        <time>2022-03-06T04:09:48Z</time>
      </trkpt>
      <trkpt lat="45.71746" lon="2.84476">
        <ele>761.737117</ele>
        <time>2022-03-06T04:11:21Z</time>
      </trkpt>
      <trkpt lat="45.71717" lon="2.84435">
        <ele>763.989225</ele>
        <time>2022-03-06T04:12:10Z</time>
      </trkpt>
      <trkpt lat="45.71647" lon="2.84302">
        <ele>770.314226</ele>
        <time>2022-03-06T04:14:29Z</time>
      </trkpt>
      <trkpt lat="45.71626" lon="2.84228">
        <ele>773.332631</ele>
        <time>2022-03-06T04:15:36Z</time>
      </trkpt>
      <trkpt lat="45.71609" lon="2.84189">
        <ele>775.070053</ele>
        <time>2022-03-06T04:16:15Z</time>
      </trkpt>
      <trkpt lat="45.71585" lon="2.84171">
        <ele>776.485863</ele>
        <time>2022-03-06T04:16:46Z</time>
      </trkpt>
      <trkpt lat="45.71576" lon="2.84176">
        <ele>777.028769</ele>
        <time>2022-03-06T04:16:59Z</time>
      </trkpt>
      <trkpt lat="45.7156" lon="2.84171">
        <ele>777.898459</ele>
        <time>2022-03-06T04:17:18Z</time>
      </trkpt>
      <trkpt lat="45.71525" lon="2.84125">
        <ele>780.437545</ele>
        <time>2022-03-06T04:18:12Z</time>
      </trkpt>
      <trkpt lat="45.71507" lon="2.84117">
        <ele>781.385873</ele>
        <time>2022-03-06T04:18:35Z</time>
      </trkpt>
      <trkpt lat="45.7149" lon="2.8412">
        <ele>782.141511</ele>
        <time>2022-03-06T04:18:55Z</time>
      </trkpt>
      <trkpt lat="45.71471" lon="2.84126">
        <ele>782.973186</ele>
        <time>2022-03-06T04:19:18Z</time>
      </trkpt>
      <trkpt lat="45.71457" lon="2.84142">
        <ele>783.741921</ele>
        <time>2022-03-06T04:19:38Z</time>
      </trkpt>
      <trkpt lat="45.71412" lon="2.84255">
        <ele>787.626648</ele>
        <time>2022-03-06T04:21:21Z</time>
      </trkpt>
      <trkpt lat="45.71362" lon="2.84241">
        <ele>790.091128</ele>
        <time>2022-03-06T04:22:20Z</time>
      </trkpt>
      <trkpt lat="45.71312" lon="2.84216">
        <ele>792.992331</ele>
        <time>2022-03-06T04:23:22Z</time>
      </trkpt>
      <trkpt lat="45.71235" lon="2.84137">
        <ele>798.190248</ele>
        <time>2022-03-06T04:25:16Z</time>
      </trkpt>
      <trkpt lat="45.71121" lon="2.8411">
        <ele>804.60557</ele>
        <time>2022-03-06T04:27:37Z</time>
      </trkpt>
      <trkpt lat="45.7106" lon="2.84106">
        <ele>808.002884</ele>
        <time>2022-03-06T04:28:49Z</time>
      </trkpt>
      <trkpt lat="45.70975" lon="2.84089">
        <ele>811.254378</ele>
        <time>2022-03-06T04:30:26Z</time>
      </trkpt>
      <trkpt lat="45.70868" lon="2.84048">
        <ele>815.037949</ele>
        <time>2022-03-06T04:32:28Z</time>
      </trkpt>
      <trkpt lat="45.70794" lon="2.83996">
        <ele>817.714236</ele>
        <time>2022-03-06T04:34:02Z</time>
      </trkpt>
      <trkpt lat="45.70685" lon="2.83964">
        <ele>820.919877</ele>
        <time>2022-03-06T04:36:05Z</time>
      </trkpt>
      <trkpt lat="45.70663" lon="2.83966">
        <ele>821.151755</ele>
        <time>2022-03-06T04:36:30Z</time>
      </trkpt>
      <trkpt lat="45.70641" lon="2.83907">
        <ele>821.632257</ele>
        <time>2022-03-06T04:37:17Z</time>
      </trkpt>
      <trkpt lat="45.70636" lon="2.83867">
        <ele>821.919438</ele>
        <time>2022-03-06T04:37:46Z</time>
      </trkpt>
      <trkpt lat="45.70617" lon="2.83819">
        <ele>822.325802</ele>
        <time>2022-03-06T04:38:26Z</time>
      </trkpt>
      <trkpt lat="45.70622" lon="2.83756">
        <ele>822.927202</ele>
        <time>2022-03-06T04:39:10Z</time>
      </trkpt>
      <trkpt lat="45.70614" lon="2.83713">
        <ele>823.510286</ele>
        <time>2022-03-06T04:39:42Z</time>
      </trkpt>
      <trkpt lat="45.70597" lon="2.83702">
        <ele>823.856862</ele>
        <time>2022-03-06T04:40:01Z</time>
      </trkpt>
      <trkpt lat="45.70542" lon="2.83733">
        <ele>824.96644</ele>
        <time>2022-03-06T04:41:01Z</time>
      </trkpt>
      <trkpt lat="45.70516" lon="2.83758">
        <ele>825.551042</ele>
        <time>2022-03-06T04:41:35Z</time>
      </trkpt>
      <trkpt lat="45.70509" lon="2.83774">
        <ele>825.793644</ele>
        <time>2022-03-06T04:41:51Z</time>
      </trkpt>
      <trkpt lat="45.70499" lon="2.83778">
        <ele>825.99401</ele>
        <time>2022-03-06T04:42:03Z</time>
      </trkpt>
      <trkpt lat="45.70464" lon="2.83735">
        <ele>829.867571</ele>
        <time>2022-03-06T04:43:02Z</time>
      </trkpt>
      <trkpt lat="45.70434" lon="2.83735">
        <ele>832.367511</ele>
        <time>2022-03-06T04:43:41Z</time>
      </trkpt>
      <trkpt lat="45.70392" lon="2.8372">
        <ele>835.929027</ele>
        <time>2022-03-06T04:44:37Z</time>
      </trkpt>
      <trkpt lat="45.70356" lon="2.83718">
        <ele>838.97263</ele>
        <time>2022-03-06T04:45:25Z</time>
      </trkpt>
      <trkpt lat="45.70237" lon="2.8373">
        <ele>848.333807</ele>
        <time>2022-03-06T04:48:01Z</time>
      </trkpt>
      <trkpt lat="45.70207" lon="2.83742">
        <ele>850.736704</ele>
        <time>2022-03-06T04:48:41Z</time>
      </trkpt>
      <trkpt lat="45.70141" lon="2.83768">
        <ele>855.57583</ele>
        <time>2022-03-06T04:50:02Z</time>
      </trkpt>
      <trkpt lat="45.70104" lon="2.83788">
        <ele>857.474207</ele>
        <time>2022-03-06T04:50:47Z</time>
      </trkpt>
      <trkpt lat="45.701" lon="2.83799">
        <ele>857.902111</ele>
        <time>2022-03-06T04:50:58Z</time>
      </trkpt>
      <trkpt lat="45.69672" lon="2.84168">
        <ele>881.498961</ele>
        <time>2022-03-06T05:00:40Z</time>
      </trkpt>
      <trkpt lat="45.69668" lon="2.84195">
        <ele>882.303981</ele>
        <time>2022-03-06T05:01:02Z</time>
      </trkpt>
      <trkpt lat="45.69689" lon="2.84323">
        <ele>886.11877</ele>
        <time>2022-03-06T05:02:45Z</time>
      </trkpt>
      <trkpt lat="45.6968" lon="2.8434">
        <ele>886.717797</ele>
        <time>2022-03-06T05:03:01Z</time>
      </trkpt>
      <trkpt lat="45.69628" lon="2.84371">
        <ele>889.314336</ele>
        <time>2022-03-06T05:04:07Z</time>
      </trkpt>
      <trkpt lat="45.6962" lon="2.84389">
        <ele>890.087274</ele>
        <time>2022-03-06T05:04:25Z</time>
      </trkpt>
      <trkpt lat="45.69618" lon="2.8441">
        <ele>890.869165</ele>
        <time>2022-03-06T05:04:43Z</time>
      </trkpt>
      <trkpt lat="45.69625" lon="2.84495">
        <ele>893.941498</ele>
        <time>2022-03-06T05:05:53Z</time>
      </trkpt>
      <trkpt lat="45.69607" lon="2.84526">
        <ele>895.406613</ele>
        <time>2022-03-06T05:06:27Z</time>
      </trkpt>
      <trkpt lat="45.69582" lon="2.84486">
        <ele>897.356409</ele>
        <time>2022-03-06T05:07:11Z</time>
      </trkpt>
      <trkpt lat="45.69521" lon="2.84433">
        <ele>900.382992</ele>
        <time>2022-03-06T05:08:34Z</time>
      </trkpt>
      <trkpt lat="45.69497" lon="2.84419">
        <ele>901.499464</ele>
        <time>2022-03-06T05:09:04Z</time>
      </trkpt>
      <trkpt lat="45.69437" lon="2.84418">
        <ele>904.057402</ele>
        <time>2022-03-06T05:10:11Z</time>
      </trkpt>
      <trkpt lat="45.69402" lon="2.84425">
        <ele>905.675061</ele>
        <time>2022-03-06T05:10:50Z</time>
      </trkpt>
      <trkpt lat="45.69335" lon="2.84452">
        <ele>909.444155</ele>
        <time>2022-03-06T05:12:12Z</time>
      </trkpt>
      <trkpt lat="45.69305" lon="2.84454">
        <ele>911.095575</ele>
        <time>2022-03-06T05:12:49Z</time>
      </trkpt>
      <trkpt lat="45.69279" lon="2.84448">
        <ele>912.554396</ele>
        <time>2022-03-06T05:13:22Z</time>
      </trkpt>
      <trkpt lat="45.69155" lon="2.84386">
        <ele>919.709384</ele>
        <time>2022-03-06T05:16:00Z</time>
      </trkpt>
      <trkpt lat="45.69139" lon="2.8439">
        <ele>920.596254</ele>
        <time>2022-03-06T05:16:20Z</time>
      </trkpt>
      <trkpt lat="45.69093" lon="2.84359">
        <ele>923.356906</ele>
        <time>2022-03-06T05:17:19Z</time>
      </trkpt>
      <trkpt lat="45.69075" lon="2.84363">
        <ele>924.360265</ele>
        <time>2022-03-06T05:17:40Z</time>
      </trkpt>
      <trkpt lat="45.69004" lon="2.84401">
        <ele>927.154114</ele>
        <time>2022-03-06T05:19:08Z</time>
      </trkpt>
      <trkpt lat="45.68987" lon="2.84428">
        <ele>928.037592</ele>
        <time>2022-03-06T05:19:36Z</time>
      </trkpt>
      <trkpt lat="45.68962" lon="2.84449">
        <ele>929.084454</ele>
        <time>2022-03-06T05:20:08Z</time>
      </trkpt>
      <trkpt lat="45.68878" lon="2.84489">
        <ele>931.485498</ele>
        <time>2022-03-06T05:21:46Z</time>
      </trkpt>
      <trkpt lat="45.68805" lon="2.84473">
        <ele>932.488965</ele>
        <time>2022-03-06T05:23:06Z</time>
      </trkpt>
      <trkpt lat="45.68749" lon="2.84483">
        <ele>933.25132</ele>
        <time>2022-03-06T05:24:03Z</time>
      </trkpt>
      <trkpt lat="45.68724" lon="2.84495">
        <ele>933.053188</ele>
        <time>2022-03-06T05:24:30Z</time>
      </trkpt>
      <trkpt lat="45.68679" lon="2.84502">
        <ele>931.40852</ele>
        <time>2022-03-06T05:25:17Z</time>
      </trkpt>
      <trkpt lat="45.68594" lon="2.84528">
        <ele>928.302499</ele>
        <time>2022-03-06T05:26:50Z</time>
      </trkpt>
      <trkpt lat="45.6858" lon="2.84528">
        <ele>927.799937</ele>
        <time>2022-03-06T05:27:04Z</time>
      </trkpt>
      <trkpt lat="45.68487" lon="2.84525">
        <ele>919.014732</ele>
        <time>2022-03-06T05:28:54Z</time>
      </trkpt>
      <trkpt lat="45.68467" lon="2.84533">
        <ele>916.711414</ele>
        <time>2022-03-06T05:29:19Z</time>
      </trkpt>
      <trkpt lat="45.68465" lon="2.84527">
        <ele>916.182494</ele>
        <time>2022-03-06T05:29:29Z</time>
      </trkpt>
      <trkpt lat="45.68475" lon="2.84503">
        <ele>913.893977</ele>
        <time>2022-03-06T05:29:53Z</time>
      </trkpt>
      <trkpt lat="45.68471" lon="2.84477">
        <ele>911.820138</ele>
        <time>2022-03-06T05:30:18Z</time>
      </trkpt>
      <trkpt lat="45.68499" lon="2.84427">
        <ele>906.795611</ele>
        <time>2022-03-06T05:31:13Z</time>
      </trkpt>
      <trkpt lat="45.68463" lon="2.84395">
        <ele>901.78047</ele>
        <time>2022-03-06T05:32:07Z</time>
      </trkpt>
      <trkpt lat="45.68453" lon="2.8436">
        <ele>898.675808</ele>
        <time>2022-03-06T05:32:41Z</time>
      </trkpt>
      <trkpt lat="45.68391" lon="2.84302">
        <ele>889.827924</ele>
        <time>2022-03-06T05:34:13Z</time>
      </trkpt>
      <trkpt lat="45.68365" lon="2.84289">
        <ele>886.611907</ele>
        <time>2022-03-06T05:34:46Z</time>
      </trkpt>
      <trkpt lat="45.68357" lon="2.84269">
        <ele>885.352962</ele>
        <time>2022-03-06T05:35:05Z</time>
      </trkpt>
      <trkpt lat="45.68345" lon="2.84229">
        <ele>884.503558</ele>
        <time>2022-03-06T05:35:40Z</time>
      </trkpt>
      <trkpt lat="45.68327" lon="2.84196">
        <ele>883.707857</ele>
        <time>2022-03-06T05:36:11Z</time>
      </trkpt>
      <trkpt lat="45.68315" lon="2.84199">
        <ele>883.378615</ele>
        <time>2022-03-06T05:36:24Z</time>
      </trkpt>
      <trkpt lat="45.68314" lon="2.84184">
        <ele>883.08601</ele>
        <time>2022-03-06T05:36:35Z</time>
      </trkpt>
      <trkpt lat="45.68326" lon="2.84132">
        <ele>882.037531</ele>
        <time>2022-03-06T05:37:15Z</time>
      </trkpt>
      <trkpt lat="45.68314" lon="2.84184">
        <ele>880.989053</ele>
        <time>2022-03-06T05:37:55Z</time>
      </trkpt>
      <trkpt lat="45.68315" lon="2.84199">
        <ele>880.696447</ele>
        <time>2022-03-06T05:38:06Z</time>
      </trkpt>
      <trkpt lat="45.68308" lon="2.84202">
        <ele>880.965334</ele>
        <time>2022-03-06T05:38:15Z</time>
      </trkpt>
      <trkpt lat="45.68276" lon="2.84207">
        <ele>883.157603</ele>
        <time>2022-03-06T05:38:53Z</time>
      </trkpt>
      <trkpt lat="45.68255" lon="2.84201">
        <ele>884.602515</ele>
        <time>2022-03-06T05:39:19Z</time>
      </trkpt>
      <trkpt lat="45.68241" lon="2.8422">
        <ele>885.903042</ele>
        <time>2022-03-06T05:39:44Z</time>
      </trkpt>
      <trkpt lat="45.68211" lon="2.84217">
        <ele>887.883528</ele>
        <time>2022-03-06T05:40:22Z</time>
      </trkpt>
      <trkpt lat="45.68156" lon="2.84239">
        <ele>891.774146</ele>
        <time>2022-03-06T05:41:37Z</time>
      </trkpt>
      <trkpt lat="45.68131" lon="2.84285">
        <ele>894.456365</ele>
        <time>2022-03-06T05:42:29Z</time>
      </trkpt>
      <trkpt lat="45.6812" lon="2.84277">
        <ele>895.32192</ele>
        <time>2022-03-06T05:42:44Z</time>
      </trkpt>
      <trkpt lat="45.68115" lon="2.84283">
        <ele>895.772268</ele>
        <time>2022-03-06T05:42:54Z</time>
      </trkpt>
      <trkpt lat="45.68103" lon="2.84282">
        <ele>896.524719</ele>
        <time>2022-03-06T05:43:08Z</time>
      </trkpt>
      <trkpt lat="45.68048" lon="2.84264">
        <ele>900.301915</ele>
        <time>2022-03-06T05:44:18Z</time>
      </trkpt>
      <trkpt lat="45.67945" lon="2.84205">
        <ele>907.238491</ele>
        <time>2022-03-06T05:46:30Z</time>
      </trkpt>
      <trkpt lat="45.67862" lon="2.84196">
        <ele>911.955823</ele>
        <time>2022-03-06T05:48:06Z</time>
      </trkpt>
      <trkpt lat="45.6785" lon="2.84205">
        <ele>912.724234</ele>
        <time>2022-03-06T05:48:24Z</time>
      </trkpt>
      <trkpt lat="45.67786" lon="2.84206">
        <ele>917.293239</ele>
        <time>2022-03-06T05:49:43Z</time>
      </trkpt>
      <trkpt lat="45.67719" lon="2.84215">
        <ele>923.390239</ele>
        <time>2022-03-06T05:51:08Z</time>
      </trkpt>
      <trkpt lat="45.67693" lon="2.84226">
        <ele>925.938595</ele>
        <time>2022-03-06T05:51:46Z</time>
      </trkpt>
      <trkpt lat="45.67655" lon="2.84267">
        <ele>930.338958</ele>
        <time>2022-03-06T05:52:48Z</time>
      </trkpt>
      <trkpt lat="45.67597" lon="2.84348">
        <ele>942.194196</ele>
        <time>2022-03-06T05:54:45Z</time>
      </trkpt>
      <trkpt lat="45.67553" lon="2.84432">
        <ele>953.692488</ele>
        <time>2022-03-06T05:56:58Z</time>
      </trkpt>
      <trkpt lat="45.6752" lon="2.84514">
        <ele>964.111547</ele>
        <time>2022-03-06T05:59:06Z</time>
      </trkpt>
      <trkpt lat="45.67465" lon="2.84625">
        <ele>979.388743</ele>
        <time>2022-03-06T06:02:00Z</time>
      </trkpt>
      <trkpt lat="45.67442" lon="2.8465">
        <ele>983.993583</ele>
        <time>2022-03-06T06:02:42Z</time>
      </trkpt>
      <trkpt lat="45.67397" lon="2.84657">
        <ele>989.790607</ele>
        <time>2022-03-06T06:03:50Z</time>
      </trkpt>
      <trkpt lat="45.67375" lon="2.84653">
        <ele>991.428039</ele>
        <time>2022-03-06T06:04:17Z</time>
      </trkpt>
      <trkpt lat="45.6736" lon="2.8464">
        <ele>992.790808</ele>
        <time>2022-03-06T06:04:40Z</time>
      </trkpt>
      <trkpt lat="45.67332" lon="2.84599">
        <ele>995.867113</ele>
        <time>2022-03-06T06:05:27Z</time>
      </trkpt>
      <trkpt lat="45.6732" lon="2.84594">
        <ele>996.820815</ele>
        <time>2022-03-06T06:05:42Z</time>
      </trkpt>
      <trkpt lat="45.67306" lon="2.84607">
        <ele>998.066717</ele>
        <time>2022-03-06T06:06:02Z</time>
      </trkpt>
      <trkpt lat="45.67314" lon="2.84678">
        <ele>1001.887955</ele>
        <time>2022-03-06T06:07:02Z</time>
      </trkpt>
      <trkpt lat="45.67299" lon="2.84748">
        <ele>1006.567659</ele>
        <time>2022-03-06T06:08:05Z</time>
      </trkpt>
      <trkpt lat="45.67275" lon="2.84827">
        <ele>1012.126947</ele>
        <time>2022-03-06T06:09:27Z</time>
      </trkpt>
      <trkpt lat="45.6723" lon="2.84959">
        <ele>1020.781193</ele>
        <time>2022-03-06T06:11:45Z</time>
      </trkpt>
      <trkpt lat="45.67204" lon="2.8499">
        <ele>1023.036998</ele>
        <time>2022-03-06T06:12:29Z</time>
      </trkpt>
      <trkpt lat="45.67118" lon="2.84994">
        <ele>1028.815006</ele>
        <time>2022-03-06T06:14:12Z</time>
      </trkpt>
      <trkpt lat="45.67152" lon="2.85037">
        <ele>1031.390028</ele>
        <time>2022-03-06T06:15:03Z</time>
      </trkpt>
      <trkpt lat="45.67191" lon="2.85102">
        <ele>1033.766079</ele>
        <time>2022-03-06T06:16:10Z</time>
      </trkpt>
      <trkpt lat="45.67195" lon="2.85119">
        <ele>1034.293238</ele>
        <time>2022-03-06T06:16:25Z</time>
      </trkpt>
      <trkpt lat="45.67181" lon="2.8512">
        <ele>1034.877907</ele>
        <time>2022-03-06T06:16:41Z</time>
      </trkpt>
      <trkpt lat="45.66981" lon="2.85052">
        <ele>1044.517021</ele>
        <time>2022-03-06T06:20:38Z</time>
      </trkpt>
      <trkpt lat="45.66969" lon="2.85047">
        <ele>1045.142674</ele>
        <time>2022-03-06T06:20:52Z</time>
      </trkpt>
      <trkpt lat="45.66558" lon="2.84881">
        <ele>1074.21673</ele>
        <time>2022-03-06T06:29:44Z</time>
      </trkpt>
      <trkpt lat="45.66388" lon="2.84775">
        <ele>1085.009728</ele>
        <time>2022-03-06T06:33:25Z</time>
      </trkpt>
      <trkpt lat="45.66334" lon="2.84737">
        <ele>1088.550774</ele>
        <time>2022-03-06T06:34:37Z</time>
      </trkpt>
      <trkpt lat="45.66311" lon="2.84714">
        <ele>1090.176637</ele>
        <time>2022-03-06T06:35:11Z</time>
      </trkpt>
      <trkpt lat="45.66267" lon="2.84757">
        <ele>1093.326204</ele>
        <time>2022-03-06T06:36:15Z</time>
      </trkpt>
      <trkpt lat="45.66206" lon="2.84777">
        <ele>1097.667215</ele>
        <time>2022-03-06T06:37:32Z</time>
      </trkpt>
      <trkpt lat="45.66201" lon="2.8479">
        <ele>1098.431449</ele>
        <time>2022-03-06T06:37:46Z</time>
      </trkpt>
      <trkpt lat="45.66197" lon="2.8488">
        <ele>1102.801425</ele>
        <time>2022-03-06T06:39:02Z</time>
      </trkpt>
      <trkpt lat="45.66189" lon="2.8489">
        <ele>1103.537671</ele>
        <time>2022-03-06T06:39:16Z</time>
      </trkpt>
      <trkpt lat="45.66175" lon="2.84896">
        <ele>1104.600976</ele>
        <time>2022-03-06T06:39:34Z</time>
      </trkpt>
      <trkpt lat="45.66161" lon="2.84911">
        <ele>1105.824019</ele>
        <time>2022-03-06T06:39:57Z</time>
      </trkpt>
      <trkpt lat="45.66061" lon="2.84956">
        <ele>1114.590037</ele>
        <time>2022-03-06T06:42:11Z</time>
      </trkpt>
      <trkpt lat="45.66027" lon="2.84965">
        <ele>1117.530606</ele>
        <time>2022-03-06T06:42:55Z</time>
      </trkpt>
      <trkpt lat="45.6599" lon="2.84982">
        <ele>1120.850175</ele>
        <time>2022-03-06T06:43:46Z</time>
      </trkpt>
      <trkpt lat="45.65883" lon="2.85013">
        <ele>1130.443468</ele>
        <time>2022-03-06T06:46:10Z</time>
      </trkpt>
      <trkpt lat="45.65801" lon="2.8505">
        <ele>1137.893326</ele>
        <time>2022-03-06T06:47:59Z</time>
      </trkpt>
      <trkpt lat="45.65759" lon="2.85084">
        <ele>1141.666939</ele>
        <time>2022-03-06T06:49:00Z</time>
      </trkpt>
      <trkpt lat="45.65713" lon="2.85121">
        <ele>1145.891573</ele>
        <time>2022-03-06T06:50:09Z</time>
      </trkpt>
      <trkpt lat="45.65668" lon="2.85174">
        <ele>1150.425005</ele>
        <time>2022-03-06T06:51:22Z</time>
      </trkpt>
      <trkpt lat="45.65656" lon="2.85207">
        <ele>1152.4048</ele>
        <time>2022-03-06T06:51:54Z</time>
      </trkpt>
      <trkpt lat="45.65533" lon="2.85364">
        <ele>1164.40158</ele>
        <time>2022-03-06T06:55:19Z</time>
      </trkpt>
      <trkpt lat="45.65488" lon="2.85396">
        <ele>1168.59924</ele>
        <time>2022-03-06T06:56:23Z</time>
      </trkpt>
      <trkpt lat="45.65462" lon="2.85402">
        <ele>1170.829653</ele>
        <time>2022-03-06T06:56:57Z</time>
      </trkpt>
      <trkpt lat="45.6537" lon="2.85392">
        <ele>1178.511908</ele>
        <time>2022-03-06T06:58:56Z</time>
      </trkpt>
      <trkpt lat="45.65313" lon="2.85387">
        <ele>1183.387123</ele>
        <time>2022-03-06T07:00:10Z</time>
      </trkpt>
      <trkpt lat="45.65323" lon="2.85433">
        <ele>1186.301448</ele>
        <time>2022-03-06T07:00:53Z</time>
      </trkpt>
      <trkpt lat="45.65316" lon="2.85436">
        <ele>1186.893295</ele>
        <time>2022-03-06T07:01:04Z</time>
      </trkpt>
      <trkpt lat="45.65291" lon="2.85426">
        <ele>1189.110334</ele>
        <time>2022-03-06T07:01:35Z</time>
      </trkpt>
      <trkpt lat="45.65237" lon="2.85444">
        <ele>1193.93416</ele>
        <time>2022-03-06T07:02:51Z</time>
      </trkpt>
      <trkpt lat="45.65222" lon="2.85455">
        <ele>1195.235579</ele>
        <time>2022-03-06T07:03:11Z</time>
      </trkpt>
      <trkpt lat="45.65206" lon="2.85456">
        <ele>1196.288113</ele>
        <time>2022-03-06T07:03:33Z</time>
      </trkpt>
      <trkpt lat="45.65158" lon="2.85442">
        <ele>1199.480197</ele>
        <time>2022-03-06T07:04:34Z</time>
      </trkpt>
      <trkpt lat="45.65135" lon="2.85442">
        <ele>1201.038374</ele>
        <time>2022-03-06T07:05:04Z</time>
      </trkpt>
      <trkpt lat="45.65112" lon="2.85471">
        <ele>1203.049725</ele>
        <time>2022-03-06T07:05:41Z</time>
      </trkpt>
      <trkpt lat="45.64919" lon="2.85851">
        <ele>1214.219747</ele>
        <time>2022-03-06T07:11:55Z</time>
      </trkpt>
      <trkpt lat="45.64836" lon="2.85764">
        <ele>1214.154443</ele>
        <time>2022-03-06T07:13:44Z</time>
      </trkpt>
      <trkpt lat="45.64796" lon="2.85717">
        <ele>1212.744573</ele>
        <time>2022-03-06T07:14:40Z</time>
      </trkpt>
      <trkpt lat="45.64779" lon="2.85711">
        <ele>1212.272928</ele>
        <time>2022-03-06T07:15:00Z</time>
      </trkpt>
      <trkpt lat="45.64795" lon="2.85844">
        <ele>1209.74014</ele>
        <time>2022-03-06T07:16:38Z</time>
      </trkpt>
    </trkseg>
  </trk>
</gpx>